Terminal Aerodrome Forecast
Issued by NWS

Home | Current Version | Previous Version | Text Only | Print | Product List | Glossary On
Versions: 1 2 3 4 5 6 7 8 9 10 11 12 13 14 15 16 17 18
000
FTUS46 KPQR 271731
TAFONP
TAF
KONP 271731Z 2718/2818 21010KT 2SM BR OVC003
     FM272000 22007KT 5SM BR BKN005 OVC010
     FM280000 28005KT 4SM BR BKN003 OVC008
     FM280400 29003KT 2SM BR OVC005=

USA.gov is the U.S. government's official web portal to all federal, state and local government web resources and services.